Time;durP1;ratioP1;P1;durP2;ratioP2;P2;SDS_P1;SDS_P2;PMS_P1;PMS_P2;Temp;Humidity;BMP_temperature;BMP_pressure;BME280_temperature;BME280_humidity;BME280_pressure;Samples;Min_cycle;Max_cycle;Signal;HPM_P1;HPM_P2
2024/02/13 00:02:01;;;;;;;13.18;8.13;;;;;;;9.62;63.37;99558.16;4883408;28;96918;-79
2024/02/13 00:04:32;;;;;;;12.55;7.68;;;;;;;9.59;63.54;99558.28;4868600;28;100282;-79
2024/02/13 00:06:58;;;;;;;12.30;8.18;;;;;;;9.55;63.40;99553.25;4899916;28;97532;-79
2024/02/13 00:09:23;;;;;;;15.73;9.13;;;;;;;9.58;63.62;99553.13;4868559;28;96612;-79
2024/02/13 00:11:50;;;;;;;13.63;9.20;;;;;;;9.59;63.78;99558.28;4898940;28;96763;-79
2024/02/13 00:14:39;;;;;;;16.52;8.82;;;;;;;9.57;63.87;99564.50;4898708;28;97398;-79
2024/02/13 00:17:05;;;;;;;13.13;8.68;;;;;;;9.57;63.88;99562.75;4890887;28;98034;-79
2024/02/13 00:19:31;;;;;;;11.82;8.68;;;;;;;9.62;63.98;99562.53;4875482;28;97475;-80
2024/02/13 00:22:02;;;;;;;13.63;8.70;;;;;;;9.63;63.44;99569.47;4881239;28;96909;-79
2024/02/13 00:24:50;;;;;;;16.88;9.13;;;;;;;9.70;63.56;99571.78;4882560;28;101083;-79
2024/02/13 00:27:17;;;;;;;15.82;9.07;;;;;;;9.66;63.45;99575.47;4879458;28;100998;-79
2024/02/13 00:29:45;;;;;;;14.38;9.15;;;;;;;9.67;63.69;99578.94;4863027;28;96780;-79
2024/02/13 00:32:17;;;;;;;16.58;8.40;;;;;;;9.68;64.00;99576.22;4850647;28;96794;-79
2024/02/13 00:34:44;;;;;;;14.43;8.18;;;;;;;9.65;63.86;99586.84;4882349;28;97813;-79
2024/02/13 00:37:11;;;;;;;13.55;8.80;;;;;;;9.63;64.35;99588.69;4865481;28;101394;-79
2024/02/13 00:39:37;;;;;;;17.10;9.43;;;;;;;9.63;64.26;99595.69;4881779;28;96786;-79
2024/02/13 00:42:05;;;;;;;20.15;9.07;;;;;;;9.61;64.31;99592.28;4866847;28;96806;-80
2024/02/13 00:44:30;;;;;;;15.77;9.05;;;;;;;9.64;63.77;99594.78;4865248;28;97654;-80
2024/02/13 00:46:57;;;;;;;13.32;8.82;;;;;;;9.64;64.10;99598.25;4850160;28;100548;-79
2024/02/13 00:49:22;;;;;;;12.10;8.80;;;;;;;9.61;64.20;99601.00;4897714;28;96673;-79
2024/02/13 00:52:04;;;;;;;13.35;8.77;;;;;;;9.53;64.71;99614.41;4881168;28;96823;-79
2024/02/13 00:54:30;;;;;;;12.00;9.23;;;;;;;9.52;64.83;99617.97;4883469;28;101437;-79
2024/02/13 00:56:56;;;;;;;14.68;9.65;;;;;;;9.48;64.90;99615.50;4883770;28;101825;-80
2024/02/13 00:59:37;;;;;;;15.15;10.32;;;;;;;9.53;64.59;99617.03;4900132;28;97109;-80
2024/02/13 01:02:03;;;;;;;17.95;10.20;;;;;;;9.43;64.91;99623.56;4899278;28;96966;-79
2024/02/13 01:04:29;;;;;;;15.02;10.38;;;;;;;9.43;65.00;99617.50;4885118;28;98010;-79
2024/02/13 01:06:55;;;;;;;14.38;9.88;;;;;;;9.46;65.11;99612.97;4874730;28;101740;-79
2024/02/13 01:09:20;;;;;;;17.10;9.48;;;;;;;9.42;65.38;99624.47;4873034;28;96831;-80
2024/02/13 01:11:46;;;;;;;13.45;9.57;;;;;;;9.36;64.99;99621.25;4899899;28;96863;-79
2024/02/13 01:14:20;;;;;;;15.30;10.23;;;;;;;9.37;65.43;99626.44;4893875;28;101143;-79
2024/02/13 01:16:45;;;;;;;16.25;9.30;;;;;;;9.44;64.80;99633.13;4884438;28;101488;-79
2024/02/13 01:19:12;;;;;;;11.32;9.30;;;;;;;9.49;64.84;99631.19;4853956;28;96822;-79
2024/02/13 01:22:13;;;;;;;15.40;10.20;;;;;;;9.41;64.86;99635.03;4868627;28;96784;-80
2024/02/13 01:24:38;;;;;;;13.95;9.65;;;;;;;9.37;64.63;99633.44;4869239;28;101758;-80
2024/02/13 01:27:04;;;;;;;15.95;10.05;;;;;;;9.41;64.69;99642.88;4866936;28;100899;-80
2024/02/13 01:29:34;;;;;;;16.73;9.23;;;;;;;9.42;64.94;99645.44;4889986;28;96784;-79
2024/02/13 01:32:04;;;;;;;12.68;9.18;;;;;;;9.33;65.10;99643.19;4895694;28;96716;-80
2024/02/13 01:34:35;;;;;;;13.98;8.95;;;;;;;9.28;64.54;99651.22;4875850;28;100514;-80
2024/02/13 01:37:01;;;;;;;12.90;9.53;;;;;;;9.32;65.12;99646.72;4880589;28;97936;-79
2024/02/13 01:39:26;;;;;;;14.65;10.55;;;;;;;9.29;64.64;99665.19;4866973;28;96786;-80
2024/02/13 01:42:23;;;;;;;16.60;10.43;;;;;;;9.31;65.08;99663.34;4865779;28;96872;-79
2024/02/13 01:44:48;;;;;;;15.00;10.82;;;;;;;9.23;65.40;99678.50;4866227;28;101032;-80
2024/02/13 01:47:14;;;;;;;20.13;11.13;;;;;;;9.28;65.25;99674.81;4869529;28;101347;-79
2024/02/13 01:49:40;;;;;;;14.45;10.68;;;;;;;9.28;64.94;99673.97;4899468;28;96668;-79
2024/02/13 01:52:12;;;;;;;14.70;11.32;;;;;;;9.27;65.45;99669.63;4900280;28;96676;-79
2024/02/13 01:54:38;;;;;;;14.95;10.57;;;;;;;9.29;64.88;99671.25;4882746;28;101250;-79
2024/02/13 01:57:04;;;;;;;15.02;11.00;;;;;;;9.21;65.03;99677.72;4884070;28;100949;-79
2024/02/13 02:00:19;;;;;;;13.93;10.93;;;;;;;9.27;65.12;99691.41;4884716;28;96605;-79
2024/02/13 02:02:51;;;;;;;18.35;11.98;;;;;;;9.26;64.69;99683.63;4886261;28;96786;-79
2024/02/13 02:05:16;;;;;;;16.90;11.10;;;;;;;9.04;65.38;99684.44;4870644;28;101342;-79
2024/02/13 02:07:42;;;;;;;20.42;11.20;;;;;;;9.19;65.09;99687.38;4901970;28;100996;-79
2024/02/13 02:10:08;;;;;;;16.48;11.40;;;;;;;9.13;64.67;99685.00;4871294;28;96668;-79
2024/02/13 02:12:39;;;;;;;21.88;12.52;;;;;;;9.17;64.83;99691.84;4870980;28;96908;-79
2024/02/13 02:15:06;;;;;;;16.60;10.75;;;;;;;9.20;64.89;99691.72;4890157;28;101375;-79
2024/02/13 02:17:31;;;;;;;15.45;12.05;;;;;;;9.12;64.68;99696.41;4884549;28;101239;-79
2024/02/13 02:19:57;;;;;;;19.55;13.23;;;;;;;9.13;64.90;99698.94;4889488;28;96764;-79
2024/02/13 02:23:00;;;;;;;17.48;12.00;;;;;;;9.19;64.71;99700.47;4889009;28;96829;-79
2024/02/13 02:25:25;;;;;;;14.23;10.15;;;;;;;9.14;64.25;99702.44;4873239;28;101737;-79
2024/02/13 02:27:51;;;;;;;15.13;10.52;;;;;;;9.12;64.79;99712.09;4901675;28;101291;-79
2024/02/13 02:30:17;;;;;;;18.27;10.77;;;;;;;9.12;64.30;99712.94;4890733;28;96789;-79
2024/02/13 02:32:47;;;;;;;18.77;10.75;;;;;;;9.14;64.13;99723.38;4889454;28;96851;-79
2024/02/13 02:35:13;;;;;;;16.90;10.98;;;;;;;8.95;63.95;99720.59;4903846;28;101237;-79
2024/02/13 02:37:40;;;;;;;16.48;10.65;;;;;;;9.12;64.33;99725.19;4900652;28;100703;-79
2024/02/13 02:40:06;;;;;;;16.15;11.20;;;;;;;9.02;64.25;99728.16;4885402;28;97276;-79
2024/02/13 02:42:35;;;;;;;15.77;10.60;;;;;;;9.00;64.57;99729.13;4887959;28;96901;-79
2024/02/13 02:45:01;;;;;;;15.25;10.65;;;;;;;8.89;65.27;99732.13;4889337;28;100767;-79
2024/02/13 02:47:26;;;;;;;16.40;10.15;;;;;;;8.96;65.10;99744.09;4906951;28;97486;-79
2024/02/13 02:49:56;;;;;;;15.20;10.55;;;;;;;8.97;64.96;99745.78;4885955;28;98017;-79
2024/02/13 02:52:21;;;;;;;16.55;10.52;;;;;;;8.93;65.19;99752.06;4894305;28;96838;-79
2024/02/13 02:55:31;;;;;;;12.88;9.90;;;;;;;8.99;65.58;99758.84;4903455;28;101998;-79
2024/02/13 02:57:56;;;;;;;15.45;10.88;;;;;;;9.09;64.81;99754.97;4896163;28;98081;-79
2024/02/13 03:00:22;;;;;;;16.05;11.02;;;;;;;9.02;65.55;99762.19;4904302;28;96725;-79
2024/02/13 03:03:06;;;;;;;15.60;10.35;;;;;;;9.03;65.63;99753.41;4903769;28;96806;-79
2024/02/13 03:05:36;;;;;;;14.13;9.75;;;;;;;9.11;65.33;99768.00;4901049;28;98565;-79
2024/02/13 03:08:02;;;;;;;13.00;9.73;;;;;;;9.07;65.50;99760.28;4908611;28;101462;-79
2024/02/13 03:10:28;;;;;;;17.40;10.75;;;;;;;9.17;65.15;99775.66;4872715;28;96712;-79
2024/02/13 03:13:05;;;;;;;14.57;10.52;;;;;;;9.21;65.39;99777.22;4888936;28;96887;-79
2024/02/13 03:15:46;;;;;;;14.15;10.27;;;;;;;9.20;65.53;99786.00;4887396;28;101553;-79
2024/02/13 03:18:11;;;;;;;15.82;10.77;;;;;;;9.17;65.54;99786.97;4887690;28;98607;-79
2024/02/13 03:20:37;;;;;;;16.67;10.68;;;;;;;9.17;65.39;99794.81;4901825;28;96762;-79
2024/02/13 03:23:08;;;;;;;16.88;10.80;;;;;;;9.21;65.75;99798.19;4903959;28;96787;-79
2024/02/13 03:25:33;;;;;;;15.90;11.18;;;;;;;9.26;65.53;99785.78;4902462;28;100428;-79
2024/02/13 03:28:00;;;;;;;16.25;11.30;;;;;;;9.27;65.20;99800.56;4909763;28;101016;-79
2024/02/13 03:30:26;;;;;;;16.17;11.15;;;;;;;9.28;65.31;99811.00;4870912;28;97044;-79
2024/02/13 03:32:57;;;;;;;13.57;9.77;;;;;;;9.29;65.21;99811.84;4886894;28;96688;-79
2024/02/13 03:35:24;;;;;;;14.18;9.75;;;;;;;9.25;65.26;99815.47;4872792;28;100784;-79
2024/02/13 03:37:50;;;;;;;14.85;10.52;;;;;;;9.10;65.42;99816.88;4854846;28;101798;-79
2024/02/13 03:40:16;;;;;;;14.80;10.00;;;;;;;9.11;64.90;99831.72;4901100;28;96672;-79
2024/02/13 03:42:43;;;;;;;15.63;10.95;;;;;;;9.20;64.69;99831.38;4883336;28;96865;-78
2024/02/13 03:45:10;;;;;;;14.70;10.38;;;;;;;9.21;64.90;99834.84;4869597;28;101702;-79
2024/02/13 03:47:36;;;;;;;13.68;10.43;;;;;;;9.19;64.80;99842.75;4854076;28;100966;-80
2024/02/13 03:50:02;;;;;;;13.93;9.95;;;;;;;9.16;64.98;99842.88;4885038;28;96700;-80
2024/02/13 03:52:46;;;;;;;17.58;10.15;;;;;;;9.17;64.35;99848.97;4884312;28;96853;-80
2024/02/13 03:55:12;;;;;;;14.43;9.73;;;;;;;9.11;64.48;99851.81;4880007;28;101198;-80
2024/02/13 03:57:40;;;;;;;13.30;9.70;;;;;;;9.10;64.39;99865.78;4862133;28;100718;-79
2024/02/13 04:00:07;;;;;;;11.75;8.60;;;;;;;9.13;63.99;99870.91;4869668;28;96825;-79
2024/02/13 04:02:33;;;;;;;15.05;9.77;;;;;;;9.11;64.54;99870.97;4855718;28;96856;-79
2024/02/13 04:04:59;;;;;;;12.15;9.02;;;;;;;9.15;64.50;99871.72;4867889;28;100747;-80
2024/02/13 04:07:25;;;;;;;11.95;9.35;;;;;;;9.18;64.78;99874.22;4883731;28;97635;-79
2024/02/13 04:13:51;;;;;;;12.73;9.20;;;;;;;9.18;64.38;99880.31;4894910;28;96705;-80
2024/02/13 04:16:17;;;;;;;15.68;9.75;;;;;;;9.16;64.50;99879.53;4879805;28;98097;-80
2024/02/13 04:18:42;;;;;;;12.57;9.35;;;;;;;9.15;64.73;99890.06;4878549;28;101036;-79
2024/02/13 04:21:19;;;;;;;18.13;10.52;;;;;;;9.19;64.31;99895.16;4882794;28;96662;-80
2024/02/13 04:23:46;;;;;;;13.25;8.88;;;;;;;9.16;64.33;99895.25;4888679;28;97025;-79
2024/02/13 04:26:22;;;;;;;13.48;9.57;;;;;;;9.17;64.79;99891.72;4882864;28;101901;-79
2024/02/13 04:28:49;;;;;;;11.63;8.90;;;;;;;9.16;64.46;99894.38;4867943;28;99989;-80
2024/02/13 04:31:19;;;;;;;13.35;9.70;;;;;;;9.13;64.17;99891.84;4865490;28;96780;-80
2024/02/13 04:33:44;;;;;;;15.15;10.02;;;;;;;9.03;64.38;99894.81;4882695;28;96732;-80
2024/02/13 04:36:10;;;;;;;12.77;9.18;;;;;;;9.13;64.65;99911.03;4897173;28;96794;-80
2024/02/13 04:39:11;;;;;;;13.85;9.32;;;;;;;9.15;63.89;99911.84;4885185;28;97890;-80
2024/02/13 04:41:42;;;;;;;15.57;8.57;;;;;;;9.10;63.78;99915.53;4870388;28;96719;-80
2024/02/13 04:44:07;;;;;;;13.07;9.40;;;;;;;9.11;64.06;99923.34;4870634;28;96883;-79
2024/02/13 04:46:33;;;;;;;13.93;9.25;;;;;;;9.09;63.67;99925.16;4868085;28;101651;-80
2024/02/13 04:49:00;;;;;;;12.10;8.05;;;;;;;9.05;63.64;99923.56;4885549;28;97428;-79
2024/02/13 04:51:44;;;;;;;10.35;7.97;;;;;;;9.00;63.82;99928.09;4884492;28;96611;-81
2024/02/13 04:54:09;;;;;;;14.02;9.00;;;;;;;8.95;63.64;99928.22;4886622;28;96694;-80
2024/02/13 04:56:35;;;;;;;12.07;8.30;;;;;;;8.97;63.41;99934.28;4885087;28;97370;-80
2024/02/13 04:59:02;;;;;;;15.25;9.48;;;;;;;8.97;64.35;99922.97;4868801;28;101373;-80
2024/02/13 05:01:29;;;;;;;12.98;8.52;;;;;;;8.97;64.23;99933.44;4884108;28;96761;-80
2024/02/13 05:09:06;;;;;;;14.02;9.18;;;;;;;8.95;64.42;99940.47;4883389;28;101509;-80
2024/02/13 05:11:33;;;;;;;16.10;10.10;;;;;;;9.01;64.44;99948.97;4861947;28;96698;-79
2024/02/13 05:14:05;;;;;;;13.63;8.68;;;;;;;9.00;64.39;99955.13;4898446;28;96788;-81
2024/02/13 05:16:31;;;;;;;15.43;10.40;;;;;;;9.00;64.53;99960.34;4898979;28;100685;-80
2024/02/13 05:19:18;;;;;;;20.63;10.50;;;;;;;8.97;64.67;99960.47;4886445;28;96681;-79
2024/02/13 05:21:50;;;;;;;13.45;9.23;;;;;;;9.03;64.50;99964.66;4885003;28;96299;-82
2024/02/13 06:20:49;;;;;;;16.63;10.13;;;;;;;8.81;64.72;100062.19;5820921;23;96809;-79
2024/02/13 06:23:14;;;;;;;15.27;11.43;;;;;;;8.72;65.28;100061.59;4854261;28;101932;-79
2024/02/13 06:26:30;;;;;;;20.45;12.43;;;;;;;8.79;65.14;100066.63;4886073;28;97493;-79
2024/02/13 06:29:51;;;;;;;16.27;11.35;;;;;;;8.83;64.67;100063.00;4886449;28;96796;-79
2024/02/13 06:32:16;;;;;;;21.15;13.02;;;;;;;8.86;64.19;100064.66;4904489;28;96662;-79
2024/02/13 06:34:42;;;;;;;18.25;11.35;;;;;;;8.78;63.93;100062.25;4886509;28;97999;-79
2024/02/13 06:37:12;;;;;;;18.85;11.02;;;;;;;8.84;64.48;100079.53;4885292;28;97948;-79
2024/02/13 06:39:50;;;;;;;21.38;11.55;;;;;;;8.88;64.04;100082.94;4887281;28;96665;-79
2024/02/13 06:42:16;;;;;;;16.10;10.02;;;;;;;8.84;64.60;100075.19;4885545;28;96817;-80
2024/02/13 06:44:43;;;;;;;16.10;11.30;;;;;;;8.92;64.14;100088.03;4871289;28;101102;-80
2024/02/13 06:47:28;;;;;;;17.83;12.43;;;;;;;8.96;64.09;100091.41;4886683;28;100985;-77
2024/02/13 06:49:53;;;;;;;20.73;11.60;;;;;;;8.90;64.60;100091.59;4903448;28;96704;-79
2024/02/13 06:52:56;;;;;;;23.27;12.23;;;;;;;8.86;64.02;100098.69;4871656;28;96976;-79
2024/02/13 06:55:23;;;;;;;21.92;12.68;;;;;;;8.83;65.03;100090.94;4884117;28;99099;-79
2024/02/13 06:58:17;;;;;;;18.33;11.68;;;;;;;8.88;64.28;100093.41;4868877;28;101677;-79
2024/02/13 07:00:47;;;;;;;22.13;13.23;;;;;;;8.72;64.85;100091.25;4869898;28;96676;-80
2024/02/13 07:03:21;;;;;;;22.48;12.50;;;;;;;8.78;64.40;100088.44;4888919;28;97378;-79
2024/02/13 07:05:47;;;;;;;19.65;12.38;;;;;;;8.76;64.64;100097.28;4893023;28;101255;-80
2024/02/13 07:08:13;;;;;;;20.63;12.52;;;;;;;8.84;64.43;100100.47;4902362;28;101447;-79
2024/02/13 07:10:39;;;;;;;28.50;14.63;;;;;;;8.75;65.14;100104.22;4888980;28;96781;-79
2024/02/13 07:13:10;;;;;;;20.15;13.90;;;;;;;8.89;64.67;100101.22;4869567;28;96790;-79
2024/02/13 07:15:36;;;;;;;21.10;14.10;;;;;;;8.83;64.73;100104.88;4867643;28;97921;-80
2024/02/13 07:18:03;;;;;;;19.73;13.95;;;;;;;8.83;64.54;100110.09;4852179;28;101635;-80
2024/02/13 07:24:55;;;;;;;22.40;14.88;;;;;;;8.99;64.50;100114.91;4897810;28;96634;-80
2024/02/13 07:27:20;;;;;;;25.33;15.82;;;;;;;9.04;64.59;100113.81;4867943;28;101909;-80
2024/02/13 07:29:46;;;;;;;21.90;15.57;;;;;;;9.11;64.20;100122.38;4888242;28;97792;-80
2024/02/13 07:32:17;;;;;;;28.35;15.30;;;;;;;9.07;64.60;100129.47;4874199;28;96623;-79
2024/02/13 07:35:20;;;;;;;26.02;16.30;;;;;;;8.95;64.84;100129.81;4875238;28;96687;-79
2024/02/13 07:37:47;;;;;;;26.73;16.73;;;;;;;8.97;64.43;100129.78;4886454;28;101145;-77
2024/02/13 07:40:13;;;;;;;30.77;16.92;;;;;;;9.05;64.60;100136.50;4853240;28;101361;-78
2024/02/13 07:43:02;;;;;;;24.92;16.92;;;;;;;9.24;64.27;100138.53;4854130;28;97056;-78
2024/02/13 07:45:27;;;;;;;27.20;17.17;;;;;;;9.28;64.08;100148.03;4885499;28;96828;-78
2024/02/13 07:48:20;;;;;;;32.50;17.17;;;;;;;9.28;63.88;100155.88;4885169;28;101312;-77
2024/02/13 07:50:46;;;;;;;29.55;17.02;;;;;;;9.33;64.52;100147.88;4884569;28;97928;-78
2024/02/13 07:53:17;;;;;;;29.27;17.63;;;;;;;9.40;63.77;100163.34;4851387;28;96741;-77
2024/02/13 07:55:44;;;;;;;24.40;17.38;;;;;;;9.30;64.33;100168.00;4882518;28;96965;-77
2024/02/13 07:58:09;;;;;;;25.35;17.10;;;;;;;9.29;64.20;100170.69;4858952;28;100252;-77
2024/02/13 08:00:50;;;;;;;26.42;18.27;;;;;;;9.26;64.41;100170.78;4910806;28;97478;-79
2024/02/13 08:03:16;;;;;;;28.45;18.85;;;;;;;9.34;64.09;100183.63;4879579;28;96901;-78
2024/02/13 08:05:41;;;;;;;28.33;17.30;;;;;;;9.22;64.40;100175.28;4897360;28;97028;-78
2024/02/13 08:08:10;;;;;;;24.92;17.08;;;;;;;9.18;64.15;100173.63;4891830;28;101557;-78
2024/02/13 10:04:45;;;;;;;13.68;7.53;;;;;;;9.61;66.79;100316.44;5819468;23;98783;-77
2024/02/13 10:07:11;;;;;;;22.55;7.90;;;;;;;10.15;65.55;100304.25;4867817;28;101386;-78
2024/02/13 10:09:36;;;;;;;10.98;7.07;;;;;;;10.45;63.41;100310.31;4896127;28;100946;-77
2024/02/13 10:12:12;;;;;;;9.38;6.60;;;;;;;10.58;60.91;100318.59;4883115;28;97113;-80
2024/02/13 10:14:38;;;;;;;18.25;8.07;;;;;;;10.56;60.55;100318.69;4867798;28;97406;-80
2024/02/13 10:17:28;;;;;;;18.92;8.27;;;;;;;10.37;59.01;100323.66;4881116;28;101268;-80
2024/02/13 10:19:54;;;;;;;13.43;6.40;;;;;;;10.32;59.28;100319.47;4885686;28;101335;-81
2024/02/13 12:07:13;;;;;;;8.70;4.47;;;;;;;10.37;55.09;100391.91;4903220;28;96689;-80
2024/02/13 12:09:42;;;;;;;10.10;4.25;;;;;;;10.24;54.76;100385.31;4885960;28;96734;-80
2024/02/13 12:12:14;;;;;;;5.07;3.55;;;;;;;10.10;54.03;100380.47;4885886;28;101011;-80
2024/02/13 12:18:39;;;;;;;8.07;3.15;;;;;;;10.24;53.63;100381.81;4881456;28;96569;-79
2024/02/13 12:24:57;;;;;;;11.05;2.40;;;;;;;10.18;51.57;100390.72;4879885;28;97098;-79
2024/02/13 12:27:43;;;;;;;15.73;2.23;;;;;;;10.03;52.40;100386.81;4880398;28;101371;-79
2024/02/13 12:30:11;;;;;;;4.82;1.75;;;;;;;9.89;52.85;100391.59;4885036;28;96703;-78
2024/02/13 12:36:24;;;;;;;5.40;2.50;;;;;;;10.08;52.72;100397.16;4897386;28;96922;-79
2024/02/13 12:41:45;;;;;;;9.88;1.88;;;;;;;10.08;52.49;100391.94;4886571;28;96637;-79
2024/02/13 12:44:13;;;;;;;4.80;2.90;;;;;;;10.04;52.97;100393.78;4884018;28;96629;-79
2024/02/13 12:46:39;;;;;;;5.60;2.42;;;;;;;10.04;52.79;100398.19;4881265;28;101624;-79
2024/02/13 12:49:37;;;;;;;14.88;2.63;;;;;;;10.18;52.92;100394.22;4880213;28;101443;-79
2024/02/13 12:52:03;;;;;;;10.57;2.70;;;;;;;10.21;52.91;100401.16;4881276;28;96626;-79
2024/02/13 12:54:28;;;;;;;11.57;3.00;;;;;;;10.26;53.24;100399.22;4880872;28;96668;-79
2024/02/13 12:56:57;;;;;;;9.30;2.65;;;;;;;10.24;53.34;100398.44;4864149;28;97507;-79
2024/02/13 13:00:04;;;;;;;4.90;2.25;;;;;;;10.22;53.22;100394.13;4849544;28;97453;-79
2024/02/13 13:06:33;;;;;;;7.95;1.98;;;;;;;10.16;53.26;100393.41;4885337;28;96578;-77
2024/02/13 13:12:36;;;;;;;7.53;2.35;;;;;;;10.39;52.95;100394.47;4895903;28;96924;-79
2024/02/13 13:15:26;;;;;;;14.10;3.00;;;;;;;10.45;52.43;100398.69;4899661;28;96683;-78
2024/02/13 13:17:54;;;;;;;13.13;3.30;;;;;;;10.52;52.58;100406.28;4898588;28;96958;-78
2024/02/13 13:21:07;;;;;;;6.97;2.72;;;;;;;10.40;52.32;100409.31;4894491;28;98460;-78
2024/02/13 13:31:20;;;;;;;10.20;2.33;;;;;;;10.40;52.26;100401.44;4877235;28;96668;-78
2024/02/13 13:38:22;;;;;;;5.03;2.35;;;;;;;10.44;51.79;100410.91;4888993;28;97044;-79
2024/02/13 13:45:10;;;;;;;3.30;2.03;;;;;;;10.26;51.36;100420.19;4896900;28;96655;-78
2024/02/13 13:50:57;;;;;;;9.55;2.55;;;;;;;10.38;51.60;100438.25;4882497;28;101822;-80
2024/02/13 14:44:20;;;;;;;4.55;2.38;;;;;;;10.51;50.99;100458.84;4880352;28;98355;-79
2024/02/13 14:46:46;;;;;;;7.70;2.10;;;;;;;10.50;50.65;100464.97;4893145;28;97690;-79
2024/02/13 14:49:11;;;;;;;5.05;1.90;;;;;;;10.57;50.55;100467.38;4881711;28;97480;-78
2024/02/13 14:51:37;;;;;;;7.85;2.97;;;;;;;10.62;50.13;100467.25;4883170;28;96692;-78
2024/02/13 14:55:03;;;;;;;11.45;3.00;;;;;;;10.62;50.28;100477.75;4866594;28;96743;-78
2024/02/13 14:57:36;;;;;;;8.00;2.45;;;;;;;10.54;50.97;100482.38;4896547;28;101815;-78
2024/02/13 15:00:03;;;;;;;9.73;3.28;;;;;;;10.58;51.29;100481.34;4866616;28;97335;-78
2024/02/13 15:02:33;;;;;;;10.73;2.30;;;;;;;10.58;51.10;100476.97;4881536;28;96735;-78
2024/02/13 16:35:54;;;;;;;18.98;6.65;;;;;;;9.43;54.92;100571.16;5753754;23;98991;-79
2024/02/13 17:20:11;;;;;;;54.50;18.17;;;;;;;9.01;55.84;100611.41;4880877;28;97730;-79
2024/02/13 17:23:01;;;;;;;36.65;16.77;;;;;;;9.06;55.41;100606.09;4879626;28;96708;-81
2024/02/13 17:25:27;;;;;;;45.40;19.15;;;;;;;8.95;55.03;100611.56;4887825;28;96791;-82
2024/02/13 17:27:53;;;;;;;39.92;19.13;;;;;;;8.87;55.69;100618.72;4868042;28;97715;-81
2024/02/13 17:30:31;;;;;;;65.00;26.45;;;;;;;8.90;55.21;100623.03;4878330;28;101409;-82
2024/02/13 17:32:57;;;;;;;60.45;23.13;;;;;;;8.70;56.16;100610.41;4876644;28;96778;-81
2024/02/13 17:35:23;;;;;;;72.55;27.58;;;;;;;8.72;55.97;100627.75;4873125;28;96861;-81
2024/02/13 17:37:49;;;;;;;68.45;24.52;;;;;;;8.68;56.27;100623.50;4879106;28;98091;-81
2024/02/13 17:40:56;;;;;;;59.60;25.48;;;;;;;8.67;56.30;100623.53;4877795;28;97875;-80
2024/02/13 17:43:22;;;;;;;79.45;32.72;;;;;;;8.59;56.75;100628.94;4894252;28;96911;-81
2024/02/13 17:45:49;;;;;;;89.18;38.83;;;;;;;8.59;56.37;100621.94;4864930;28;96750;-81
2024/02/13 17:48:14;;;;;;;83.65;32.95;;;;;;;8.61;56.37;100629.78;4878990;28;97976;-81
2024/02/13 17:50:46;;;;;;;55.10;20.63;;;;;;;8.51;56.40;100621.22;4877970;28;100782;-81
2024/02/13 17:53:13;;;;;;;53.63;17.10;;;;;;;8.43;56.62;100628.38;4874243;28;96824;-81
2024/02/13 17:55:39;;;;;;;50.00;17.77;;;;;;;8.38;56.97;100627.59;4868260;28;96944;-81
2024/02/13 17:58:13;;;;;;;53.38;20.08;;;;;;;8.29;56.78;100626.03;4896092;28;97604;-81
2024/02/13 18:00:40;;;;;;;50.00;20.98;;;;;;;8.28;57.58;100621.66;4879701;28;97898;-81
2024/02/13 18:03:06;;;;;;;58.22;25.55;;;;;;;8.24;57.06;100629.63;4893581;28;96820;-80
2024/02/13 18:05:32;;;;;;;55.17;28.05;;;;;;;8.31;57.22;100624.22;4879266;28;96809;-80
2024/02/13 18:08:03;;;;;;;82.88;37.35;;;;;;;8.37;56.87;100633.69;4878362;28;100990;-81
2024/02/13 18:10:28;;;;;;;98.68;44.90;;;;;;;8.28;57.04;100637.34;4882870;28;98037;-82
2024/02/13 18:12:57;;;;;;;85.82;36.08;;;;;;;8.33;56.49;100632.91;4881123;28;96766;-80
2024/02/13 18:15:23;;;;;;;87.55;33.58;;;;;;;8.18;56.75;100627.97;4880166;28;96791;-80
2024/02/13 18:22:10;;;;;;;81.78;37.72;;;;;;;8.32;56.68;100636.44;4878901;28;96997;-80
2024/02/13 18:28:48;;;;;;;71.53;28.02;;;;;;;8.02;57.31;100640.47;4878372;28;96536;-81
2024/02/13 18:35:04;;;;;;;58.97;29.25;;;;;;;7.92;57.46;100646.78;4877835;28;96684;-80
2024/02/13 18:37:30;;;;;;;60.03;25.05;;;;;;;7.86;57.39;100646.88;4862461;28;96807;-79
2024/02/13 18:39:56;;;;;;;53.03;24.08;;;;;;;7.92;57.66;100649.38;4881054;28;96644;-80
2024/02/13 18:43:10;;;;;;;51.35;24.65;;;;;;;7.93;57.12;100653.72;4889398;28;100230;-80
2024/02/13 18:46:21;;;;;;;53.35;24.70;;;;;;;7.90;57.57;100651.16;4893360;28;100063;-81
2024/02/13 18:48:47;;;;;;;46.78;22.10;;;;;;;7.80;57.82;100660.06;4892984;28;96602;-76
2024/02/13 18:51:14;;;;;;;46.58;23.65;;;;;;;7.86;57.31;100649.50;4876312;28;96894;-76
2024/02/13 18:53:40;;;;;;;65.93;24.95;;;;;;;7.90;56.96;100654.63;4881545;28;101108;-77
2024/02/13 18:56:11;;;;;;;52.70;23.70;;;;;;;7.82;57.08;100650.41;4879900;28;97892;-77
2024/02/13 18:58:38;;;;;;;52.72;25.45;;;;;;;7.75;57.79;100651.44;4895170;28;96849;-76
2024/02/13 19:01:04;;;;;;;59.33;27.23;;;;;;;7.72;57.46;100647.97;4879690;28;97158;-76
2024/02/13 19:08:41;;;;;;;64.72;27.80;;;;;;;7.63;57.89;100652.50;4877246;28;97085;-77
2024/02/13 19:11:06;;;;;;;54.85;24.95;;;;;;;7.63;58.15;100648.13;4878237;28;97057;-77
2024/02/13 19:13:32;;;;;;;53.20;24.90;;;;;;;7.58;57.79;100646.47;4895700;28;97204;-77
2024/02/13 19:15:58;;;;;;;57.42;24.92;;;;;;;7.49;58.00;100658.81;4879074;28;97505;-76
2024/02/13 19:18:30;;;;;;;58.38;25.08;;;;;;;7.47;58.21;100655.34;4880195;28;97364;-76
2024/02/13 19:20:56;;;;;;;60.75;30.58;;;;;;;7.46;58.10;100656.25;4879175;28;96583;-76
2024/02/13 19:23:23;;;;;;;56.30;26.23;;;;;;;7.42;58.45;100651.09;4880865;28;96654;-77
2024/02/13 19:25:58;;;;;;;57.53;26.30;;;;;;;7.39;58.34;100649.41;4880034;28;98208;-77
2024/02/13 19:28:24;;;;;;;43.80;23.38;;;;;;;7.43;58.16;100655.44;4862131;28;97379;-77
2024/02/13 19:30:50;;;;;;;47.55;24.27;;;;;;;7.49;58.35;100661.41;4879312;28;96774;-76
2024/02/13 19:33:16;;;;;;;55.47;24.90;;;;;;;7.40;58.55;100661.56;4880209;28;96769;-78
2024/02/13 19:35:42;;;;;;;49.60;25.10;;;;;;;7.33;58.62;100656.44;4879370;28;97581;-77
2024/02/13 19:38:12;;;;;;;141.27;48.25;;;;;;;7.33;58.64;100659.94;4880439;28;97144;-76
2024/02/13 19:40:39;;;;;;;73.45;27.02;;;;;;;7.32;58.58;100673.88;4880430;28;96644;-77
2024/02/13 19:43:05;;;;;;;104.63;37.75;;;;;;;7.26;58.69;100668.75;4880537;28;96958;-77
2024/02/13 19:45:31;;;;;;;134.38;47.17;;;;;;;7.26;58.50;100676.56;4880168;28;97547;-77
2024/02/13 19:48:42;;;;;;;169.02;59.95;;;;;;;7.35;58.37;100679.03;4879618;28;99690;-77
2024/02/13 19:51:08;;;;;;;126.80;48.83;;;;;;;7.31;58.30;100671.31;4882057;28;96823;-77
2024/02/13 19:53:34;;;;;;;106.85;42.33;;;;;;;7.35;58.39;100678.19;4877263;28;96790;-77
2024/02/13 19:56:22;;;;;;;87.20;38.53;;;;;;;7.36;57.83;100666.84;4877373;28;100701;-77
2024/02/13 19:58:49;;;;;;;89.18;36.22;;;;;;;7.40;58.04;100676.38;4878291;28;97371;-76
2024/02/13 20:01:15;;;;;;;109.03;44.60;;;;;;;7.33;58.06;100677.34;4879695;28;97476;-78
2024/02/13 20:03:42;;;;;;;99.75;41.15;;;;;;;7.19;58.06;100673.19;4894764;28;96790;-77
2024/02/13 20:06:08;;;;;;;100.15;38.72;;;;;;;7.13;58.54;100677.66;4878943;28;97510;-79
2024/02/13 20:08:33;;;;;;;87.47;34.67;;;;;;;7.00;58.86;100674.34;4879043;28;96814;-79
2024/02/13 20:10:59;;;;;;;91.78;34.33;;;;;;;7.07;58.90;100678.59;4894457;28;96834;-79
2024/02/13 20:13:54;;;;;;;77.97;31.52;;;;;;;7.10;58.64;100680.28;4877806;28;96824;-78
2024/02/13 20:16:55;;;;;;;62.78;28.33;;;;;;;7.06;58.82;100679.47;4875334;28;98151;-78
2024/02/13 20:19:23;;;;;;;59.85;25.40;;;;;;;7.00;58.97;100672.59;4870459;28;97873;-80
2024/02/13 20:21:49;;;;;;;61.08;25.88;;;;;;;7.03;58.79;100677.75;4892572;28;97055;-79
2024/02/13 20:24:15;;;;;;;58.63;26.02;;;;;;;7.02;58.94;100686.47;4877475;28;96890;-78
2024/02/13 20:27:35;;;;;;;66.65;28.33;;;;;;;6.93;58.90;100689.22;4889691;28;97656;-77
2024/02/13 20:30:00;;;;;;;79.72;29.58;;;;;;;6.88;58.91;100691.03;4894353;28;97732;-77
2024/02/13 20:32:26;;;;;;;61.97;28.10;;;;;;;6.90;59.06;100691.88;4866537;28;96971;-76
2024/02/13 20:34:51;;;;;;;68.93;28.88;;;;;;;6.92;59.10;100682.28;4878182;28;96957;-76